createdAt,value
2022-10-06T00:07:13.437Z,99.99
2022-10-06T00:22:13.278Z,99.99
2022-10-06T00:37:13.363Z,99.99
2022-10-06T00:52:14.062Z,99.57
2022-10-06T01:07:14.098Z,99.99
2022-10-06T01:22:14.779Z,99.99
2022-10-06T01:37:15.283Z,99.99
2022-10-06T01:52:15.412Z,99.99
2022-10-06T02:07:15.486Z,99.99
2022-10-06T02:22:15.607Z,99.58
2022-10-06T02:37:16.244Z,98.66
2022-10-06T02:52:16.347Z,98.32
2022-10-06T03:07:16.443Z,99.58
2022-10-06T03:22:16.576Z,99.80
2022-10-06T03:37:16.650Z,98.33
2022-10-06T03:52:16.783Z,99.99
2022-10-06T04:07:17.621Z,99.99
2022-10-06T04:22:19.180Z,99.99
2022-10-06T04:37:19.050Z,99.99
2022-10-06T04:52:19.401Z,99.99
2022-10-06T05:07:19.319Z,97.27
2022-10-06T05:22:19.454Z,95.90
2022-10-06T05:37:19.545Z,96.39
2022-10-06T05:52:19.671Z,98.37
2022-10-06T06:07:19.762Z,98.57
2022-10-06T06:22:19.846Z,97.11
2022-10-06T06:37:20.372Z,96.90
2022-10-06T06:52:20.337Z,96.86
2022-10-06T07:07:20.319Z,97.92
2022-10-06T07:22:20.402Z,98.54
2022-10-06T07:37:20.740Z,96.46
2022-10-06T07:52:20.760Z,94.29
2022-10-06T08:07:20.819Z,90.50
2022-10-06T08:22:20.933Z,85.76
2022-10-06T08:37:21.374Z,82.79
2022-10-06T08:52:21.342Z,79.35
2022-10-06T09:07:21.342Z,77.02
2022-10-06T09:22:21.465Z,74.39
2022-10-06T09:37:21.765Z,70.66
2022-10-06T09:52:22.106Z,67.14
2022-10-06T10:07:21.983Z,68.24
2022-10-06T10:22:22.083Z,65.50
2022-10-06T10:37:22.427Z,65.90
2022-10-06T10:52:22.483Z,65.10
2022-10-06T11:07:26.572Z,62.63
2022-10-06T11:22:27.123Z,62.83
2022-10-06T11:37:27.766Z,61.24
2022-10-06T11:52:27.836Z,62.03
2022-10-06T12:07:27.934Z,59.83
2022-10-06T12:22:28.045Z,58.94
2022-10-06T12:37:28.184Z,58.13
2022-10-06T12:52:28.333Z,58.28
2022-10-06T13:07:28.476Z,59.89
2022-10-06T13:22:29.049Z,58.49
2022-10-06T13:37:29.119Z,58.31
2022-10-06T13:52:29.380Z,58.99
2022-10-06T14:07:29.406Z,58.18
2022-10-06T14:22:29.377Z,59.42
2022-10-06T14:37:30.823Z,57.63
2022-10-06T14:52:31.104Z,56.85
2022-10-06T15:07:31.019Z,59.34
2022-10-06T15:22:31.123Z,60.49
2022-10-06T15:37:32.365Z,64.72
2022-10-06T15:52:32.363Z,65.31
2022-10-06T16:07:32.425Z,68.91
2022-10-06T16:22:32.514Z,71.73
2022-10-06T16:37:33.156Z,75.52
2022-10-06T16:52:33.188Z,81.39
2022-10-06T17:07:33.286Z,84.70
2022-10-06T17:22:33.456Z,89.18
2022-10-06T17:37:33.534Z,92.13
2022-10-06T17:52:34.130Z,93.65
2022-10-06T18:07:34.250Z,97.56
2022-10-06T18:22:34.339Z,99.99
2022-10-06T18:37:34.495Z,99.99
2022-10-06T18:52:34.602Z,99.99
2022-10-06T19:07:34.748Z,99.99
2022-10-06T19:22:34.823Z,99.99
2022-10-06T19:37:34.995Z,99.99
2022-10-06T19:52:35.062Z,99.99
2022-10-06T20:07:35.183Z,99.99
2022-10-06T20:22:35.304Z,99.99
2022-10-06T20:37:35.559Z,92.63
2022-10-06T20:52:35.539Z,96.34
2022-10-06T21:07:35.679Z,97.17
2022-10-06T21:22:35.831Z,98.76
2022-10-06T21:37:35.944Z,95.34
2022-10-06T21:52:36.577Z,97.82
2022-10-06T22:07:36.724Z,96.58
2022-10-06T22:22:37.361Z,98.78
2022-10-06T22:37:38.014Z,95.99
2022-10-06T22:52:38.051Z,95.42
2022-10-06T23:07:38.267Z,94.01
2022-10-06T23:22:38.791Z,91.22
2022-10-06T23:37:38.976Z,94.68
2022-10-06T23:52:39.024Z,94.72
